KCDR/CDR METAR and TAF weather

Enter ICAO airport designator
Station Type Date Time Source
KCDR METAR 2018/01/16 08:53 UTC NOAA

KCDR 160853Z AUTO 27004KT 10SM CLR M26/M29 A3067 RMK AO2 SLP485 T12611294 56013


Station Type Date Time Source
KCDR Decoded METAR 2018/01/16 08:53 UTC NOAA

CHADRON MUNICIPAL AIRPORT, NE, United States (KCDR) 42-50N 103-06W 1010M
Jan 16, 2018 - 03:53 AM EST / 2018.01.16 0853 UTC
Wind: from the W (270 degrees) at 5 MPH (4 KT):0
Visibility: 10 mile(s):0
Sky conditions: clear
Temperature: -15.0 F (-26.1 C)
Windchill: -27 F (-33 C):2
Dew Point: -20.9 F (-29.4 C)
Relative Humidity: 73%
Pressure (altimeter): 30.67 in. Hg (1038 hPa)
Pressure tendency: 0.04 inches (1.3 hPa) lower than three hours ago
ob: KCDR 160853Z AUTO 27004KT 10SM CLR M26/M29 A3067 RMK AO2 SLP485 T12611294 56013
cycle: 9

Station Type Date Time Source
KCDR TAF 2018/01/16 06:33 UTC NOAA

TAF KCDR 160531Z 1606/1706 VRB03KT P6SM SKC
FM161800 20007KT P6SM SKC


Example: see airport list